Time;durP1;ratioP1;P1;durP2;ratioP2;P2;SDS_P1;SDS_P2;PMS_P1;PMS_P2;Temp;Humidity;BMP_temperature;BMP_pressure;BME280_temperature;BME280_humidity;BME280_pressure;Samples;Min_cycle;Max_cycle;Signal;HPM_P1;HPM_P2
2023/06/08 00:02:13;;;;;;;5.08;4.62;;;19.90;67.30;;;;;;948484;149;27817;-75
2023/06/08 00:04:40;;;;;;;4.62;4.22;;;19.80;67.10;;;;;;949030;149;27388;-75
2023/06/08 00:07:08;;;;;;;4.53;4.17;;;19.80;67.40;;;;;;948327;149;27343;-75
2023/06/08 00:09:32;;;;;;;5.62;4.30;;;19.80;67.20;;;;;;948772;149;27376;-75
2023/06/08 00:11:59;;;;;;;4.37;4.08;;;19.70;67.30;;;;;;950161;149;27382;-75
2023/06/08 00:14:25;;;;;;;5.22;4.22;;;19.70;67.40;;;;;;950273;149;27848;-75
2023/06/08 00:16:52;;;;;;;4.78;4.37;;;19.70;67.40;;;;;;949152;149;27262;-75
2023/06/08 00:19:19;;;;;;;4.22;3.80;;;19.70;67.50;;;;;;949460;149;27390;-75
2023/06/08 00:21:48;;;;;;;4.65;4.35;;;19.60;67.50;;;;;;949690;149;27493;-75
2023/06/08 00:24:12;;;;;;;5.05;4.65;;;19.60;67.70;;;;;;948775;149;27420;-75
2023/06/08 00:26:38;;;;;;;4.50;4.10;;;19.60;67.80;;;;;;949950;149;27314;-75
2023/06/08 00:29:05;;;;;;;6.80;4.15;;;19.60;67.80;;;;;;948615;147;27283;-75
2023/06/08 00:31:31;;;;;;;4.65;4.35;;;19.50;67.80;;;;;;949490;149;27322;-75
2023/06/08 00:33:58;;;;;;;4.40;4.00;;;19.50;68.00;;;;;;950321;149;27445;-75
2023/06/08 00:36:25;;;;;;;4.45;4.05;;;19.50;68.10;;;;;;945965;149;27443;-75
2023/06/08 00:38:51;;;;;;;5.60;4.17;;;19.40;68.20;;;;;;949474;149;27910;-75
2023/06/08 00:41:18;;;;;;;5.28;4.30;;;19.40;68.20;;;;;;951401;149;27348;-75
2023/06/08 00:43:45;;;;;;;7.70;4.85;;;19.40;68.30;;;;;;949359;149;27475;-75
2023/06/08 00:46:12;;;;;;;9.15;5.45;;;19.30;68.30;;;;;;947001;149;27968;-75
2023/06/08 00:48:38;;;;;;;4.50;4.20;;;19.30;69.00;;;;;;948786;149;27445;-75
2023/06/08 00:51:04;;;;;;;4.17;3.87;;;19.30;68.50;;;;;;952514;149;27329;-75
2023/06/08 00:53:31;;;;;;;5.30;4.62;;;19.20;68.60;;;;;;949174;149;27253;-75
2023/06/08 00:55:57;;;;;;;4.58;4.22;;;19.20;68.60;;;;;;949795;149;27430;-75
2023/06/08 00:58:24;;;;;;;4.95;4.50;;;19.10;68.70;;;;;;948119;149;27357;-75
2023/06/08 01:00:52;;;;;;;4.75;4.25;;;19.10;68.90;;;;;;950501;148;27383;-75
2023/06/08 01:03:19;;;;;;;4.85;4.45;;;19.10;68.90;;;;;;953180;148;27279;-75
2023/06/08 01:05:44;;;;;;;4.58;4.17;;;19.00;68.90;;;;;;953520;148;27305;-75
2023/06/08 01:08:25;;;;;;;5.58;4.55;;;19.10;69.00;;;;;;954722;148;27359;-75
2023/06/08 01:11:11;;;;;;;4.60;4.30;;;19.00;69.00;;;;;;952422;148;27337;-75
2023/06/08 01:13:59;;;;;;;4.75;4.37;;;19.00;69.00;;;;;;950796;148;27338;-75
2023/06/08 01:16:27;;;;;;;5.50;5.00;;;19.00;69.10;;;;;;954506;148;27350;-75
2023/06/08 01:18:53;;;;;;;6.55;5.87;;;18.90;69.20;;;;;;953177;148;27381;-75
2023/06/08 01:21:24;;;;;;;5.50;5.00;;;18.90;69.60;;;;;;953696;148;27315;-76
2023/06/08 01:24:12;;;;;;;7.40;5.58;;;18.90;69.70;;;;;;951563;148;27444;-76
2023/06/08 01:26:36;;;;;;;5.22;4.83;;;18.90;69.90;;;;;;952818;148;27427;-75
2023/06/08 01:29:02;;;;;;;4.75;4.40;;;18.80;69.70;;;;;;955163;148;27335;-75
2023/06/08 01:31:29;;;;;;;5.10;4.70;;;18.80;69.90;;;;;;952774;148;27329;-75
2023/06/08 01:33:55;;;;;;;4.97;4.58;;;18.70;69.90;;;;;;953010;148;27320;-75
2023/06/08 01:36:49;;;;;;;5.05;4.65;;;18.70;70.10;;;;;;951727;148;27385;-75
2023/06/08 01:39:25;;;;;;;5.45;5.05;;;18.70;70.30;;;;;;952773;148;27415;-75
2023/06/08 01:41:51;;;;;;;5.20;4.50;;;18.60;70.20;;;;;;952162;148;27454;-75
2023/06/08 01:44:18;;;;;;;4.95;4.55;;;18.60;70.40;;;;;;953102;148;27400;-75
2023/06/08 01:46:44;;;;;;;4.67;4.37;;;18.50;70.50;;;;;;952904;148;27379;-75
2023/06/08 01:49:11;;;;;;;5.20;4.70;;;18.50;70.60;;;;;;954251;148;27347;-75
2023/06/08 01:51:38;;;;;;;5.00;4.47;;;18.40;70.70;;;;;;952201;148;27291;-75
2023/06/08 01:54:04;;;;;;;5.08;4.67;;;18.40;70.90;;;;;;952416;148;27297;-75
2023/06/08 01:56:31;;;;;;;5.17;4.67;;;18.40;71.00;;;;;;952699;148;27441;-75
2023/06/08 01:58:57;;;;;;;5.22;4.72;;;18.40;71.20;;;;;;952930;148;27367;-75
2023/06/08 02:01:24;;;;;;;4.62;4.33;;;18.30;71.20;;;;;;951868;148;27359;-75
2023/06/08 02:03:50;;;;;;;4.75;4.35;;;18.30;71.40;;;;;;947926;149;27289;-75
2023/06/08 02:06:17;;;;;;;4.87;4.47;;;18.30;71.50;;;;;;948544;148;27314;-75
2023/06/08 02:08:44;;;;;;;5.10;4.60;;;18.20;71.50;;;;;;948823;149;27358;-75
2023/06/08 02:11:10;;;;;;;4.78;4.35;;;18.20;71.70;;;;;;948802;149;27263;-75
2023/06/08 02:13:43;;;;;;;6.00;5.08;;;18.20;71.80;;;;;;947454;149;27403;-75
2023/06/08 02:16:09;;;;;;;4.97;4.47;;;18.10;71.90;;;;;;949427;149;27690;-75
2023/06/08 02:18:39;;;;;;;5.45;5.05;;;18.10;72.00;;;;;;951461;149;27372;-75
2023/06/08 02:21:04;;;;;;;5.35;4.87;;;18.10;72.20;;;;;;947557;149;27852;-76
2023/06/08 02:23:29;;;;;;;5.45;5.00;;;18.10;72.30;;;;;;950080;149;27390;-75
2023/06/08 02:25:56;;;;;;;5.08;4.67;;;18.10;72.30;;;;;;949772;149;27312;-75
2023/06/08 02:28:22;;;;;;;4.92;4.42;;;18.10;72.50;;;;;;948458;149;27426;-74
2023/06/08 02:30:49;;;;;;;5.20;4.80;;;18.10;72.60;;;;;;950314;149;27442;-74
2023/06/08 02:33:15;;;;;;;5.47;5.05;;;18.00;72.60;;;;;;949458;149;27444;-74
2023/06/08 02:35:42;;;;;;;5.30;4.90;;;18.10;72.80;;;;;;950949;149;27283;-74
2023/06/08 02:38:09;;;;;;;5.70;5.15;;;18.10;72.90;;;;;;947773;148;27671;-74
2023/06/08 02:40:35;;;;;;;5.78;5.30;;;18.00;72.80;;;;;;945855;149;27356;-78
2023/06/08 02:43:02;;;;;;;7.92;4.92;;;18.00;73.00;;;;;;951837;149;27343;-78
2023/06/08 02:45:28;;;;;;;5.70;5.30;;;18.00;73.00;;;;;;948143;149;27343;-78
2023/06/08 02:47:55;;;;;;;5.83;5.33;;;18.00;73.20;;;;;;948266;149;27316;-78
2023/06/08 02:50:22;;;;;;;5.47;4.92;;;18.00;73.10;;;;;;949259;149;27273;-78
2023/06/08 02:52:48;;;;;;;5.55;5.15;;;18.00;74.00;;;;;;949028;149;27511;-78
2023/06/08 02:55:15;;;;;;;5.00;4.60;;;18.00;73.10;;;;;;948172;149;27457;-78
2023/06/08 02:57:41;;;;;;;5.12;4.72;;;18.00;73.20;;;;;;947993;149;27425;-78
2023/06/08 03:00:08;;;;;;;5.25;4.85;;;18.00;73.20;;;;;;948673;148;27275;-78
2023/06/08 03:02:35;;;;;;;7.33;4.87;;;18.00;73.40;;;;;;935865;149;27494;-78
2023/06/08 03:05:04;;;;;;;5.50;4.72;;;18.10;73.50;;;;;;930208;151;27398;-78
2023/06/08 03:07:33;;;;;;;5.60;5.08;;;18.00;73.60;;;;;;932298;151;27315;-78
2023/06/08 03:09:57;;;;;;;6.22;4.92;;;18.00;73.70;;;;;;929540;151;27377;-78
2023/06/08 03:12:24;;;;;;;5.45;5.05;;;18.00;73.80;;;;;;930606;151;27459;-78
2023/06/08 03:14:50;;;;;;;5.90;5.40;;;18.00;73.90;;;;;;930967;151;27386;-78
2023/06/08 03:17:20;;;;;;;5.28;4.95;;;18.00;73.90;;;;;;930074;151;27385;-78
2023/06/08 03:19:46;;;;;;;5.53;5.12;;;18.00;74.10;;;;;;929196;151;27357;-78
2023/06/08 03:22:12;;;;;;;5.40;5.00;;;18.10;74.00;;;;;;930796;151;27286;-78
2023/06/08 03:24:40;;;;;;;5.30;4.85;;;18.10;74.10;;;;;;930082;151;27391;-78
2023/06/08 03:27:06;;;;;;;5.75;5.08;;;18.10;74.20;;;;;;928112;150;27366;-78
2023/06/08 03:29:32;;;;;;;5.00;4.60;;;18.10;74.20;;;;;;930754;151;27362;-78
2023/06/08 03:31:59;;;;;;;5.85;5.35;;;18.10;74.20;;;;;;930739;151;27336;-78
2023/06/08 03:34:25;;;;;;;5.90;5.40;;;18.10;74.20;;;;;;931210;151;27330;-78
2023/06/08 03:36:52;;;;;;;5.20;4.80;;;18.10;74.30;;;;;;928876;151;27479;-78
2023/06/08 03:39:19;;;;;;;6.10;5.50;;;18.10;74.40;;;;;;929103;151;27395;-78
2023/06/08 03:41:45;;;;;;;5.50;5.00;;;18.10;74.50;;;;;;929340;151;27365;-78
2023/06/08 03:44:12;;;;;;;5.50;5.00;;;18.10;74.60;;;;;;929424;151;27428;-78
2023/06/08 03:46:38;;;;;;;5.40;4.75;;;18.10;74.70;;;;;;929997;151;27382;-78
2023/06/08 03:49:05;;;;;;;5.62;5.12;;;18.10;74.80;;;;;;930165;151;27315;-78
2023/06/08 03:51:32;;;;;;;5.47;4.65;;;18.10;75.00;;;;;;929049;151;27422;-78
2023/06/08 03:53:58;;;;;;;4.65;4.30;;;18.10;75.00;;;;;;929893;151;27350;-78
2023/06/08 03:56:25;;;;;;;5.17;4.78;;;18.20;75.10;;;;;;928038;151;27314;-78
2023/06/08 03:58:51;;;;;;;5.28;4.80;;;18.20;75.10;;;;;;931121;151;27455;-78
2023/06/08 04:01:18;;;;;;;5.17;4.78;;;18.20;75.10;;;;;;930827;151;27419;-78
2023/06/08 04:03:44;;;;;;;5.78;4.87;;;18.20;75.10;;;;;;941963;149;27385;-78
2023/06/08 04:06:11;;;;;;;5.12;4.72;;;18.20;75.10;;;;;;940745;149;27333;-78
2023/06/08 04:08:40;;;;;;;5.25;4.85;;;18.30;75.10;;;;;;943478;149;27369;-78
2023/06/08 04:11:04;;;;;;;5.35;4.70;;;18.30;75.10;;;;;;940013;149;27350;-78
2023/06/08 04:13:31;;;;;;;4.92;4.53;;;18.30;75.20;;;;;;944629;149;27344;-78
2023/06/08 04:15:57;;;;;;;4.90;4.50;;;18.40;75.30;;;;;;946869;149;27275;-78
2023/06/08 04:18:24;;;;;;;4.80;4.40;;;18.40;74.50;;;;;;944613;149;27326;-78
2023/06/08 04:20:51;;;;;;;5.22;4.72;;;18.50;75.30;;;;;;943980;149;27374;-78
2023/06/08 04:23:18;;;;;;;4.60;4.30;;;18.50;75.30;;;;;;945928;149;27383;-78
2023/06/08 04:25:44;;;;;;;4.62;4.30;;;18.60;75.20;;;;;;944005;149;27265;-78
2023/06/08 04:28:10;;;;;;;4.83;4.40;;;18.60;75.20;;;;;;942414;149;27313;-78
2023/06/08 04:30:37;;;;;;;5.37;4.87;;;18.70;75.10;;;;;;946093;149;27342;-78
2023/06/08 04:33:04;;;;;;;5.15;4.65;;;18.80;75.00;;;;;;943279;149;27339;-78
2023/06/08 04:35:32;;;;;;;4.75;4.35;;;18.90;74.90;;;;;;943795;149;27398;-78
2023/06/08 04:37:57;;;;;;;5.03;4.55;;;19.00;74.80;;;;;;944427;149;27321;-78
2023/06/08 04:40:25;;;;;;;5.05;4.55;;;19.00;74.60;;;;;;944303;149;27329;-78
2023/06/08 04:42:50;;;;;;;4.80;4.30;;;19.10;74.60;;;;;;942556;149;27372;-78
2023/06/08 04:45:18;;;;;;;4.70;4.37;;;19.20;74.50;;;;;;943269;149;27462;-78
2023/06/08 04:47:43;;;;;;;5.25;4.75;;;19.30;74.50;;;;;;942357;149;27435;-77
2023/06/08 04:50:10;;;;;;;4.37;4.08;;;19.40;74.40;;;;;;942832;149;27298;-77
2023/06/08 04:52:40;;;;;;;3.87;3.58;;;19.50;74.40;;;;;;942111;149;27469;-77
2023/06/08 04:55:03;;;;;;;5.08;4.62;;;19.60;74.40;;;;;;943899;149;27331;-77
2023/06/08 04:57:29;;;;;;;4.80;4.40;;;19.80;74.60;;;;;;944104;149;27468;-77
2023/06/08 04:59:57;;;;;;;4.12;3.83;;;20.10;75.30;;;;;;944563;149;27332;-77
2023/06/08 05:02:23;;;;;;;4.45;4.05;;;20.30;75.50;;;;;;942578;149;27459;-77
2023/06/08 05:04:49;;;;;;;4.30;3.90;;;20.70;75.80;;;;;;945952;149;27367;-77
2023/06/08 05:07:16;;;;;;;4.55;4.17;;;21.10;75.30;;;;;;945915;149;27376;-77
2023/06/08 05:09:42;;;;;;;4.85;4.05;;;21.40;74.30;;;;;;945125;149;27458;-77
2023/06/08 05:12:10;;;;;;;4.35;4.00;;;21.80;72.90;;;;;;946664;149;27251;-77
2023/06/08 05:14:36;;;;;;;4.35;4.05;;;22.10;71.70;;;;;;947161;149;27406;-77
2023/06/08 05:17:02;;;;;;;3.65;3.45;;;22.30;70.70;;;;;;944112;149;27371;-77
2023/06/08 05:19:29;;;;;;;5.05;4.20;;;22.40;69.60;;;;;;947685;149;27350;-77
2023/06/08 05:21:55;;;;;;;4.05;3.77;;;22.50;69.10;;;;;;945258;149;27404;-77
2023/06/08 05:24:22;;;;;;;3.95;3.65;;;22.50;68.70;;;;;;944921;149;28090;-76
2023/06/08 05:26:49;;;;;;;4.40;3.80;;;22.60;68.50;;;;;;945706;149;27308;-77
2023/06/08 05:29:15;;;;;;;4.47;4.08;;;22.60;68.30;;;;;;945198;149;27386;-77
2023/06/08 05:31:42;;;;;;;3.83;3.40;;;22.60;68.10;;;;;;946530;149;27368;-77
2023/06/08 05:34:08;;;;;;;4.08;3.77;;;22.60;67.80;;;;;;945129;149;27302;-77
2023/06/08 05:36:35;;;;;;;3.83;3.50;;;22.60;67.50;;;;;;944566;149;27629;-77
2023/06/08 05:39:04;;;;;;;3.95;3.65;;;22.60;67.30;;;;;;945152;149;27468;-77
2023/06/08 05:41:28;;;;;;;3.70;3.50;;;22.60;67.10;;;;;;946234;149;27339;-77
2023/06/08 05:43:55;;;;;;;3.87;3.58;;;22.60;67.10;;;;;;944312;149;27301;-77
2023/06/08 05:46:21;;;;;;;4.20;3.90;;;22.60;67.40;;;;;;945484;149;27414;-77
2023/06/08 05:48:48;;;;;;;4.40;4.10;;;22.60;67.20;;;;;;945649;149;27331;-77
2023/06/08 05:51:14;;;;;;;4.42;3.70;;;22.60;67.30;;;;;;945894;148;27322;-77
2023/06/08 05:53:41;;;;;;;4.30;3.95;;;22.60;67.40;;;;;;945411;149;27456;-77
2023/06/08 05:56:08;;;;;;;3.92;3.60;;;22.70;67.50;;;;;;944470;149;27314;-77
2023/06/08 05:58:34;;;;;;;5.42;3.98;;;22.70;67.40;;;;;;946320;149;27325;-77
2023/06/08 06:01:04;;;;;;;3.70;3.42;;;22.80;67.40;;;;;;945950;149;27337;-77
2023/06/08 06:03:27;;;;;;;3.95;3.65;;;22.90;67.50;;;;;;943216;149;27770;-77
2023/06/08 06:05:54;;;;;;;4.37;3.77;;;23.00;67.20;;;;;;930859;151;27343;-77
2023/06/08 06:08:21;;;;;;;4.45;4.05;;;23.10;67.10;;;;;;930145;151;27414;-78
2023/06/08 06:10:47;;;;;;;3.85;3.55;;;23.20;67.10;;;;;;929303;151;27455;-77
2023/06/08 06:13:14;;;;;;;3.75;3.45;;;23.40;67.80;;;;;;930575;151;27424;-77
2023/06/08 06:15:40;;;;;;;4.47;4.17;;;23.70;68.60;;;;;;930318;151;27539;-77
2023/06/08 06:18:07;;;;;;;4.60;3.87;;;24.20;69.00;;;;;;930702;151;27349;-77
2023/06/08 06:20:33;;;;;;;3.90;3.47;;;24.70;69.10;;;;;;930255;151;27452;-77
2023/06/08 06:23:00;;;;;;;3.77;3.47;;;25.40;68.90;;;;;;930898;150;27347;-78
2023/06/08 06:25:27;;;;;;;4.12;3.08;;;26.10;68.30;;;;;;928977;151;27366;-77
2023/06/08 06:27:53;;;;;;;3.22;3.02;;;26.80;67.40;;;;;;928185;151;27422;-77
2023/06/08 06:30:20;;;;;;;4.45;3.20;;;27.50;66.90;;;;;;928554;151;27340;-78
2023/06/08 06:32:46;;;;;;;3.42;3.12;;;28.30;66.20;;;;;;930075;151;27365;-78
2023/06/08 06:35:13;;;;;;;3.27;3.08;;;29.20;65.00;;;;;;929457;150;27276;-78
2023/06/08 06:37:40;;;;;;;3.25;3.05;;;30.00;62.90;;;;;;929720;151;27387;-78
2023/06/08 06:40:06;;;;;;;3.40;3.10;;;30.70;60.90;;;;;;930744;151;27354;-78
2023/06/08 06:42:33;;;;;;;3.65;3.20;;;31.30;59.70;;;;;;929180;151;27369;-78
2023/06/08 06:45:00;;;;;;;4.03;3.20;;;32.00;59.10;;;;;;928392;151;27367;-78
2023/06/08 06:47:26;;;;;;;3.40;3.10;;;32.80;58.40;;;;;;929549;151;27408;-78
2023/06/08 06:49:53;;;;;;;3.17;2.90;;;33.50;57.00;;;;;;929653;151;26320;-77
2023/06/08 06:52:19;;;;;;;2.70;2.50;;;34.20;55.70;;;;;;929169;151;26310;-76
2023/06/08 06:54:46;;;;;;;3.65;2.65;;;34.90;54.90;;;;;;930707;151;26228;-77
2023/06/08 06:57:13;;;;;;;2.75;2.55;;;35.50;54.30;;;;;;930488;151;26342;-77
2023/06/08 06:59:40;;;;;;;3.10;2.80;;;36.20;53.00;;;;;;930629;151;26200;-76
2023/06/08 07:02:09;;;;;;;3.55;2.80;;;36.70;52.00;;;;;;930130;151;26310;-77
2023/06/08 07:04:35;;;;;;;2.92;2.40;;;37.40;51.20;;;;;;939332;148;26317;-77
2023/06/08 07:07:03;;;;;;;2.92;2.72;;;38.00;50.40;;;;;;953557;148;26893;-77
2023/06/08 07:09:28;;;;;;;3.33;3.12;;;38.70;49.30;;;;;;952424;148;26147;-77
2023/06/08 07:11:55;;;;;;;2.70;2.50;;;39.30;48.30;;;;;;953846;148;26366;-77
2023/06/08 07:14:21;;;;;;;2.67;2.58;;;39.90;47.50;;;;;;954061;148;26270;-77
2023/06/08 07:16:48;;;;;;;2.83;2.62;;;40.40;46.30;;;;;;953382;148;26250;-77
2023/06/08 07:19:15;;;;;;;2.95;2.75;;;40.90;45.20;;;;;;951479;148;26220;-74
2023/06/08 07:21:41;;;;;;;5.17;2.60;;;41.50;44.50;;;;;;952402;148;26275;-74
2023/06/08 07:24:08;;;;;;;2.77;2.33;;;41.80;43.60;;;;;;954536;148;26673;-76
2023/06/08 07:26:34;;;;;;;2.83;2.58;;;42.40;42.80;;;;;;952736;148;26372;-76
2023/06/08 07:29:01;;;;;;;2.58;2.37;;;42.70;42.00;;;;;;951498;147;26641;-76
2023/06/08 07:31:27;;;;;;;3.12;2.50;;;43.10;41.10;;;;;;952156;148;26307;-76
2023/06/08 07:33:57;;;;;;;3.25;2.50;;;43.50;40.30;;;;;;952614;148;26247;-76
2023/06/08 07:36:24;;;;;;;2.67;2.47;;;43.80;39.60;;;;;;954574;148;26347;-76
2023/06/08 07:38:50;;;;;;;2.60;2.40;;;44.10;38.90;;;;;;955140;148;26203;-76
2023/06/08 07:41:19;;;;;;;3.02;2.35;;;44.30;38.30;;;;;;954802;148;26197;-76
2023/06/08 07:43:46;;;;;;;2.58;2.37;;;44.60;38.00;;;;;;954372;148;26336;-76
2023/06/08 07:46:12;;;;;;;2.22;2.12;;;44.70;37.40;;;;;;954842;148;26340;-76
2023/06/08 07:48:39;;;;;;;3.92;2.35;;;44.90;37.20;;;;;;953446;148;26160;-76
2023/06/08 07:51:06;;;;;;;2.90;2.70;;;45.20;36.70;;;;;;950389;148;26267;-76
2023/06/08 07:53:38;;;;;;;4.40;2.47;;;45.40;35.90;;;;;;951358;148;26270;-76
2023/06/08 07:56:05;;;;;;;2.58;2.37;;;45.60;35.40;;;;;;954915;148;26266;-76
2023/06/08 07:58:31;;;;;;;3.95;2.40;;;45.80;34.80;;;;;;951242;148;26299;-76
2023/06/08 08:00:58;;;;;;;2.52;2.42;;;45.80;34.20;;;;;;952196;148;26235;-76
2023/06/08 08:03:24;;;;;;;2.52;2.40;;;45.80;33.70;;;;;;951558;148;26208;-76
2023/06/08 08:05:51;;;;;;;2.45;2.25;;;45.70;33.60;;;;;;947773;148;26697;-76
2023/06/08 08:08:17;;;;;;;2.92;2.65;;;45.60;33.10;;;;;;947500;149;26275;-76
2023/06/08 08:10:44;;;;;;;2.60;2.12;;;45.40;33.90;;;;;;948750;149;26680;-76
2023/06/08 08:13:12;;;;;;;2.80;2.60;;;45.20;32.90;;;;;;947605;149;26285;-76
2023/06/08 08:15:39;;;;;;;2.72;2.52;;;45.10;33.20;;;;;;948709;149;26232;-76
2023/06/08 08:18:04;;;;;;;2.30;2.17;;;45.10;33.30;;;;;;948643;149;26282;-76
2023/06/08 08:20:30;;;;;;;2.83;2.58;;;45.10;33.10;;;;;;949607;149;26358;-76
2023/06/08 08:22:57;;;;;;;2.83;2.62;;;45.10;32.80;;;;;;948786;149;26277;-76
2023/06/08 08:25:24;;;;;;;2.35;2.15;;;45.10;32.80;;;;;;949032;149;26317;-76
2023/06/08 08:27:50;;;;;;;2.60;2.40;;;45.20;32.50;;;;;;950242;147;26454;-76
2023/06/08 08:30:17;;;;;;;2.50;2.40;;;45.20;32.10;;;;;;948121;149;26276;-76
2023/06/08 08:32:43;;;;;;;2.58;2.37;;;45.10;31.90;;;;;;950242;149;26329;-76
2023/06/08 08:35:10;;;;;;;2.60;2.40;;;44.90;31.40;;;;;;948937;149;26200;-76
2023/06/08 08:37:37;;;;;;;2.50;2.37;;;44.70;31.50;;;;;;948108;148;26304;-76
2023/06/08 08:40:05;;;;;;;3.27;2.22;;;44.60;31.90;;;;;;948119;148;26287;-76
2023/06/08 08:42:30;;;;;;;2.85;2.40;;;44.50;31.80;;;;;;948864;147;26303;-76
2023/06/08 08:44:56;;;;;;;3.08;2.72;;;44.50;31.70;;;;;;948202;149;26216;-76
2023/06/08 08:47:23;;;;;;;2.45;2.25;;;44.50;31.90;;;;;;948111;149;26304;-76
2023/06/08 08:49:53;;;;;;;3.22;2.87;;;44.50;31.80;;;;;;948752;149;26378;-76
2023/06/08 08:52:20;;;;;;;2.55;2.35;;;44.50;31.70;;;;;;948206;149;26279;-76
2023/06/08 08:54:55;;;;;;;2.60;2.40;;;44.60;31.60;;;;;;948735;149;26237;-76
2023/06/08 08:57:12;;;;;;;2.65;2.45;;;44.70;31.40;;;;;;947656;149;26336;-76
2023/06/08 08:59:40;;;;;;;2.83;2.70;;;44.80;31.60;;;;;;948352;149;26224;-76
2023/06/08 09:02:05;;;;;;;2.50;2.22;;;44.90;31.20;;;;;;948635;149;26324;-76
2023/06/08 09:04:32;;;;;;;3.33;2.45;;;45.10;31.30;;;;;;950233;149;26216;-76
2023/06/08 09:06:58;;;;;;;2.90;2.70;;;45.20;31.10;;;;;;942737;149;26325;-76
2023/06/08 09:09:25;;;;;;;2.52;2.33;;;45.40;30.90;;;;;;942823;149;26351;-76
2023/06/08 09:12:01;;;;;;;2.77;2.58;;;45.60;30.70;;;;;;943260;149;26335;-76
2023/06/08 09:14:27;;;;;;;2.90;2.10;;;45.80;30.60;;;;;;940076;149;26279;-76
2023/06/08 09:16:54;;;;;;;3.00;2.50;;;46.00;30.30;;;;;;940837;149;26330;-76
2023/06/08 09:19:22;;;;;;;2.52;2.35;;;46.10;29.90;;;;;;943968;149;26214;-77
2023/06/08 09:21:47;;;;;;;2.87;2.52;;;46.20;29.80;;;;;;925397;152;26352;-76
2023/06/08 09:24:18;;;;;;;3.08;2.65;;;46.30;29.70;;;;;;929144;152;26332;-76
2023/06/08 09:26:49;;;;;;;2.95;2.75;;;46.30;29.70;;;;;;925210;152;26413;-76
2023/06/08 09:29:39;;;;;;;2.85;2.65;;;46.30;29.60;;;;;;928311;152;26361;-76
2023/06/08 09:32:03;;;;;;;2.70;2.50;;;46.20;29.60;;;;;;928264;152;26296;-76
2023/06/08 09:34:33;;;;;;;3.95;2.22;;;46.30;29.70;;;;;;928448;152;26285;-74
2023/06/08 09:37:08;;;;;;;2.50;2.40;;;46.50;29.50;;;;;;926528;152;26276;-74
2023/06/08 09:39:40;;;;;;;2.33;2.12;;;46.70;29.40;;;;;;926866;152;26358;-74
2023/06/08 09:42:08;;;;;;;2.42;2.22;;;46.80;29.10;;;;;;928915;152;26315;-74
2023/06/08 09:44:35;;;;;;;2.60;2.40;;;46.90;28.80;;;;;;928172;152;26299;-74
2023/06/08 09:47:00;;;;;;;2.80;2.60;;;46.80;28.70;;;;;;927404;152;26242;-74
2023/06/08 09:49:27;;;;;;;2.47;2.27;;;46.80;28.50;;;;;;926859;152;26263;-74
2023/06/08 09:51:53;;;;;;;2.33;2.12;;;46.70;28.60;;;;;;929860;152;26210;-75
2023/06/08 09:54:20;;;;;;;2.25;2.10;;;46.60;28.60;;;;;;926217;152;26732;-76
2023/06/08 09:56:47;;;;;;;2.33;2.22;;;46.30;28.50;;;;;;930533;151;26283;-76
2023/06/08 09:59:19;;;;;;;2.67;2.50;;;46.00;28.50;;;;;;927538;152;26248;-76
2023/06/08 10:01:48;;;;;;;2.45;2.30;;;45.70;28.30;;;;;;927887;152;26233;-76
2023/06/08 10:04:31;;;;;;;2.65;2.42;;;45.40;28.40;;;;;;926948;152;26321;-76
2023/06/08 10:06:57;;;;;;;2.70;2.50;;;44.90;28.40;;;;;;930012;151;26433;-76
2023/06/08 10:09:29;;;;;;;4.03;2.72;;;44.50;28.70;;;;;;933300;151;26358;-76
2023/06/08 10:11:55;;;;;;;2.90;2.70;;;44.10;28.70;;;;;;932246;151;26192;-76
2023/06/08 10:14:22;;;;;;;2.92;2.72;;;43.60;28.90;;;;;;934403;151;26259;-76
2023/06/08 10:16:48;;;;;;;3.12;2.83;;;43.20;29.10;;;;;;932757;151;26295;-76
2023/06/08 10:19:15;;;;;;;3.17;2.72;;;42.90;29.30;;;;;;932793;151;26252;-76
2023/06/08 10:21:42;;;;;;;2.98;2.67;;;42.50;29.30;;;;;;934273;151;26293;-76
2023/06/08 10:24:08;;;;;;;3.02;2.83;;;42.10;29.30;;;;;;930408;151;26326;-76
2023/06/08 10:26:35;;;;;;;2.95;2.75;;;41.70;29.50;;;;;;933604;151;27361;-76
2023/06/08 10:29:10;;;;;;;3.47;2.90;;;41.30;29.50;;;;;;930659;151;26381;-76
2023/06/08 10:31:40;;;;;;;4.65;2.58;;;40.90;29.80;;;;;;930864;151;27291;-76
2023/06/08 10:34:09;;;;;;;3.10;2.90;;;40.40;29.80;;;;;;933751;151;26224;-76
2023/06/08 10:36:36;;;;;;;2.70;2.58;;;39.90;30.00;;;;;;929922;151;26396;-76
2023/06/08 10:39:04;;;;;;;3.08;2.87;;;39.50;30.00;;;;;;933050;151;26236;-76
2023/06/08 10:41:44;;;;;;;3.00;2.80;;;39.10;30.40;;;;;;930468;151;26247;-76
2023/06/08 10:44:23;;;;;;;4.17;3.15;;;38.70;31.00;;;;;;933920;151;26227;-76
2023/06/08 10:46:49;;;;;;;4.00;3.33;;;38.40;31.20;;;;;;933044;151;27861;-75
2023/06/08 10:49:16;;;;;;;2.83;2.62;;;38.20;31.40;;;;;;931976;151;26699;-76
2023/06/08 10:51:45;;;;;;;3.60;3.08;;;38.00;32.00;;;;;;931506;151;26244;-76
2023/06/08 10:54:21;;;;;;;3.10;2.90;;;37.80;32.10;;;;;;932388;151;26413;-76
2023/06/08 10:56:51;;;;;;;4.45;3.72;;;37.60;32.10;;;;;;933108;151;26352;-76
2023/06/08 10:59:14;;;;;;;3.42;3.22;;;37.40;32.30;;;;;;932782;151;26268;-76
2023/06/08 11:01:41;;;;;;;3.70;3.30;;;37.10;32.30;;;;;;932820;151;26279;-76
2023/06/08 11:04:07;;;;;;;3.17;2.98;;;36.80;32.90;;;;;;934021;151;27382;-76
2023/06/08 11:06:34;;;;;;;3.33;3.05;;;36.50;33.10;;;;;;931853;151;26342;-76
2023/06/08 11:09:03;;;;;;;3.30;3.00;;;36.30;33.20;;;;;;927582;152;27444;-76
2023/06/08 11:11:27;;;;;;;3.08;2.87;;;36.10;33.40;;;;;;891308;155;27493;-76
2023/06/08 11:13:54;;;;;;;2.92;2.72;;;35.90;33.60;;;;;;891795;155;27365;-76
2023/06/08 11:16:20;;;;;;;3.65;3.17;;;35.70;33.60;;;;;;916463;154;27377;-76
2023/06/08 11:18:47;;;;;;;3.10;2.90;;;35.50;33.60;;;;;;918758;154;27366;-75
2023/06/08 11:21:13;;;;;;;3.27;3.08;;;35.20;33.70;;;;;;914020;154;27404;-75
2023/06/08 11:23:40;;;;;;;2.87;2.67;;;34.90;33.60;;;;;;918562;154;27420;-76
2023/06/08 11:26:07;;;;;;;2.72;2.52;;;34.60;33.70;;;;;;917981;154;27394;-75
2023/06/08 11:28:33;;;;;;;3.20;3.00;;;34.30;34.10;;;;;;916441;151;27476;-75
2023/06/08 11:31:03;;;;;;;3.20;3.00;;;34.10;34.80;;;;;;922167;152;27398;-75
2023/06/08 11:33:26;;;;;;;3.30;3.10;;;33.90;35.30;;;;;;917106;154;27401;-75
2023/06/08 11:35:53;;;;;;;3.22;3.02;;;33.70;35.80;;;;;;924439;152;27465;-75
2023/06/08 11:38:20;;;;;;;3.40;3.20;;;33.60;35.80;;;;;;890477;155;27378;-76
2023/06/08 11:40:46;;;;;;;3.30;3.10;;;33.50;36.30;;;;;;890168;155;27358;-75
2023/06/08 11:43:13;;;;;;;3.37;3.08;;;33.50;36.70;;;;;;891841;155;27365;-75
2023/06/08 11:45:39;;;;;;;3.30;3.00;;;33.50;37.60;;;;;;890052;155;27489;-75
2023/06/08 11:48:06;;;;;;;2.92;2.70;;;33.50;37.10;;;;;;892507;155;27535;-75
2023/06/08 11:50:33;;;;;;;3.87;3.58;;;33.60;37.20;;;;;;891822;155;27474;-75
2023/06/08 11:52:59;;;;;;;3.15;2.90;;;33.60;37.20;;;;;;890134;155;27380;-75
2023/06/08 11:55:26;;;;;;;3.20;2.90;;;33.70;37.10;;;;;;893062;155;27394;-76
2023/06/08 11:57:53;;;;;;;3.50;3.20;;;33.70;36.90;;;;;;890996;155;27479;-75
2023/06/08 12:00:21;;;;;;;3.33;3.00;;;33.70;36.80;;;;;;918265;154;27379;-75
2023/06/08 12:02:51;;;;;;;3.10;2.90;;;33.60;36.10;;;;;;917775;154;27450;-75
2023/06/08 12:05:17;;;;;;;3.30;3.00;;;33.50;35.60;;;;;;923798;152;27392;-75
2023/06/08 12:07:59;;;;;;;2.70;2.50;;;33.40;35.60;;;;;;905816;155;27441;-75
2023/06/08 12:10:43;;;;;;;3.30;3.10;;;33.30;36.00;;;;;;892260;155;27408;-75
2023/06/08 12:13:13;;;;;;;3.37;3.17;;;33.10;36.60;;;;;;889760;155;27383;-75
2023/06/08 12:15:45;;;;;;;3.55;3.25;;;33.10;37.20;;;;;;914655;154;27533;-75
2023/06/08 12:18:12;;;;;;;3.62;3.40;;;32.90;37.40;;;;;;915343;154;27370;-75
2023/06/08 12:20:38;;;;;;;3.35;3.02;;;32.80;37.60;;;;;;917154;154;27382;-75
2023/06/08 12:23:05;;;;;;;3.17;2.98;;;32.70;38.00;;;;;;918018;154;27474;-75
2023/06/08 12:25:31;;;;;;;3.37;3.08;;;32.70;38.30;;;;;;916907;154;27404;-75
2023/06/08 12:27:58;;;;;;;3.60;3.30;;;32.70;38.70;;;;;;915256;154;27429;-75
2023/06/08 12:30:27;;;;;;;3.12;2.92;;;32.70;38.60;;;;;;908392;155;27388;-75
2023/06/08 12:32:54;;;;;;;3.58;3.27;;;32.70;38.50;;;;;;921462;152;27306;-75
2023/06/08 12:35:23;;;;;;;3.62;3.33;;;32.70;38.50;;;;;;917352;154;27418;-75
2023/06/08 12:37:49;;;;;;;3.00;2.80;;;32.70;38.40;;;;;;916970;154;27396;-75
2023/06/08 12:40:16;;;;;;;3.52;3.22;;;32.70;38.40;;;;;;920605;152;27309;-75
2023/06/08 12:42:46;;;;;;;3.27;2.98;;;32.60;38.30;;;;;;906466;155;27476;-76
2023/06/08 12:45:09;;;;;;;3.08;2.75;;;32.60;38.20;;;;;;912323;155;27494;-76
2023/06/08 12:47:36;;;;;;;3.25;2.87;;;32.70;38.40;;;;;;907125;155;27268;-75
2023/06/08 12:50:04;;;;;;;3.22;2.92;;;32.70;37.80;;;;;;890314;155;27358;-76